createdAt,value
2022-08-01T00:04:31.785Z,6.57
2022-08-01T00:09:33.517Z,4.72
2022-08-01T00:14:35.157Z,5.28
2022-08-01T00:19:36.781Z,3.45
2022-08-01T00:24:38.390Z,7.07
2022-08-01T00:30:12.592Z,5.45
2022-08-01T00:35:01.692Z,4.50
2022-08-01T00:40:03.860Z,6.40
2022-08-01T00:45:06.108Z,5.88
2022-08-01T00:50:08.543Z,7.18
2022-08-01T00:55:15.288Z,4.38
2022-08-01T01:00:17.174Z,3.78
2022-08-01T01:05:19.061Z,4.68
2022-08-01T01:10:32.649Z,4.45
2022-08-01T01:15:58.954Z,5.95
2022-08-01T01:21:25.734Z,4.47
2022-08-01T01:26:39.315Z,4.20
2022-08-01T01:32:04.336Z,4.38
2022-08-01T01:37:10.266Z,5.93
2022-08-01T01:42:12.104Z,6.10
2022-08-01T01:47:17.261Z,4.50
2022-08-01T01:52:19.869Z,7.85
2022-08-01T01:57:23.936Z,4.18
2022-08-01T02:02:25.818Z,6.97
2022-08-01T02:07:29.102Z,5.28
2022-08-01T02:12:34.295Z,25.65
2022-08-01T02:17:40.769Z,53.38
2022-08-01T02:22:47.536Z,24.67
2022-08-01T02:28:01.630Z,10.30
2022-08-01T02:33:15.678Z,5.88
2022-08-01T02:38:19.278Z,6.57
2022-08-01T02:43:24.887Z,5.65
2022-08-01T02:48:28.112Z,3.92
2022-08-01T02:53:43.819Z,6.00
2022-08-01T02:58:48.300Z,4.80
2022-08-01T03:03:51.415Z,5.40
2022-08-01T03:08:54.848Z,7.00
2022-08-01T03:13:58.192Z,6.55
2022-08-01T03:19:02.994Z,6.05
2022-08-01T03:24:06.440Z,6.80
2022-08-01T03:29:13.850Z,5.57
2022-08-01T03:34:16.432Z,5.28
2022-08-01T03:39:20.319Z,9.02
2022-08-01T03:44:27.085Z,6.55
2022-08-01T03:49:32.972Z,5.03
2022-08-01T03:54:41.209Z,4.60
2022-08-01T03:59:44.108Z,6.13
2022-08-01T04:04:46.366Z,4.80
2022-08-01T04:09:47.951Z,5.68
2022-08-01T04:14:50.507Z,5.55
2022-08-01T04:19:52.101Z,5.10
2022-08-01T04:24:58.210Z,6.22
2022-08-01T04:30:01.552Z,6.05
2022-08-01T04:35:22.886Z,8.23
2022-08-01T04:40:30.527Z,6.45
2022-08-01T04:45:33.669Z,7.68
2022-08-01T04:50:37.549Z,9.18
2022-08-01T04:55:39.142Z,9.90
2022-08-01T05:00:40.711Z,8.65
2022-08-01T05:05:42.484Z,8.05
2022-08-01T05:10:44.259Z,7.35
2022-08-01T05:15:45.897Z,9.13
2022-08-01T05:20:48.421Z,8.18
2022-08-01T05:25:57.410Z,7.53
2022-08-01T05:30:59.919Z,9.25
2022-08-01T05:36:01.598Z,11.48
2022-08-01T05:41:03.243Z,10.13
2022-08-01T05:46:04.845Z,10.18
2022-08-01T05:51:06.527Z,8.70
2022-08-01T05:56:08.190Z,9.13
2022-08-01T06:01:09.834Z,10.60
2022-08-01T06:06:11.696Z,10.13
2022-08-01T06:11:13.651Z,9.95
2022-08-01T06:16:15.233Z,11.05
2022-08-01T06:21:16.888Z,9.13
2022-08-01T06:26:19.586Z,8.13
2022-08-01T06:31:21.176Z,8.77
2022-08-01T06:36:22.781Z,10.38
2022-08-01T06:41:24.601Z,7.05
2022-08-01T06:46:30.267Z,9.80
2022-08-01T06:51:33.767Z,6.60
2022-08-01T06:56:36.292Z,6.75
2022-08-01T07:01:38.036Z,7.40
2022-08-01T07:06:41.199Z,5.03
2022-08-01T07:11:42.847Z,5.28
2022-08-01T07:16:44.464Z,4.80
2022-08-01T07:21:46.060Z,4.50
2022-08-01T07:26:53.821Z,6.20
2022-08-01T07:31:57.827Z,4.70
2022-08-01T07:36:59.431Z,5.63
2022-08-01T07:42:07.509Z,5.20
2022-08-01T07:47:09.913Z,4.93
2022-08-01T07:52:11.560Z,5.20
2022-08-01T07:57:13.219Z,4.95
2022-08-01T08:02:14.894Z,6.47
2022-08-01T08:07:17.123Z,5.88
2022-08-01T08:12:18.791Z,6.03
2022-08-01T08:17:36.200Z,4.00
2022-08-01T08:22:38.705Z,4.85
2022-08-01T08:27:40.283Z,4.22
2022-08-01T08:32:42.743Z,4.28
2022-08-01T08:37:47.592Z,3.85
2022-08-01T08:42:49.651Z,5.13
2022-08-01T08:47:53.347Z,5.03
2022-08-01T08:52:57.415Z,6.20
2022-08-01T08:58:01.564Z,7.25
2022-08-01T09:03:03.366Z,6.50
2022-08-01T09:08:08.737Z,4.88
2022-08-01T09:13:14.018Z,5.40
2022-08-01T09:18:37.087Z,7.25
2022-08-01T09:23:54.215Z,5.43
2022-08-01T09:28:56.641Z,5.13
2022-08-01T09:34:05.121Z,6.30
2022-08-01T09:44:18.660Z,6.47
2022-08-01T09:49:51.743Z,5.88
2022-08-01T09:54:57.505Z,6.28
2022-08-01T10:00:02.195Z,5.38
2022-08-01T10:05:09.348Z,5.70
2022-08-01T10:10:16.207Z,4.60
2022-08-01T10:15:19.389Z,4.57
2022-08-01T10:20:30.005Z,5.30
2022-08-01T10:25:46.609Z,6.57
2022-08-01T10:30:49.644Z,4.30
2022-08-01T10:35:52.642Z,4.20
2022-08-01T10:40:55.952Z,4.70
2022-08-01T10:45:58.092Z,4.20
2022-08-01T10:51:04.733Z,4.18
2022-08-01T10:56:19.439Z,7.03
2022-08-01T11:01:25.751Z,5.22
2022-08-01T11:06:33.603Z,4.80
2022-08-01T11:12:07.334Z,5.05
2022-08-01T11:17:42.568Z,3.95
2022-08-01T11:23:03.370Z,5.00
2022-08-01T11:28:32.789Z,5.43
2022-08-01T11:33:45.760Z,5.90
2022-08-01T11:38:51.376Z,4.32
2022-08-01T11:44:21.215Z,4.60
2022-08-01T11:49:36.018Z,5.25
2022-08-01T11:54:45.239Z,4.75
2022-08-01T12:00:02.852Z,6.50
2022-08-01T12:05:12.120Z,6.00
2022-08-01T12:10:16.873Z,6.80
2022-08-01T12:15:21.211Z,4.10
2022-08-01T12:20:24.260Z,4.60
2022-08-01T12:25:25.937Z,4.60
2022-08-01T12:30:28.132Z,4.57
2022-08-01T12:35:31.002Z,3.50
2022-08-01T12:40:35.848Z,5.03
2022-08-01T12:45:54.376Z,5.10
2022-08-01T12:51:01.442Z,3.65
2022-08-01T12:56:03.173Z,7.35
2022-08-01T13:01:10.566Z,4.90
2022-08-01T13:06:17.836Z,3.80
2022-08-01T13:11:20.905Z,3.80
2022-08-01T13:16:30.658Z,3.80
2022-08-01T13:21:53.839Z,4.55
2022-08-01T13:27:03.552Z,4.65
2022-08-01T13:32:29.236Z,4.68
2022-08-01T13:37:32.355Z,4.80
2022-08-01T13:42:34.362Z,4.05
2022-08-01T13:47:36.057Z,5.03
2022-08-01T13:52:37.632Z,6.38
2022-08-01T13:57:39.423Z,3.72
2022-08-01T14:02:41.354Z,3.03
2022-08-01T14:07:43.829Z,3.97
2022-08-01T14:12:50.875Z,2.72
2022-08-01T14:17:52.779Z,2.95
2022-08-01T14:22:54.425Z,3.20
2022-08-01T14:27:56.141Z,3.53
2022-08-01T14:32:57.962Z,3.20
2022-08-01T14:37:59.602Z,5.40
2022-08-01T14:43:02.265Z,3.35
2022-08-01T14:48:04.139Z,3.67
2022-08-01T14:53:05.732Z,4.32
2022-08-01T14:58:07.357Z,3.58
2022-08-01T15:03:09.157Z,3.28
2022-08-01T15:08:10.731Z,3.55
2022-08-01T15:13:12.397Z,2.70
2022-08-01T15:18:13.993Z,2.85
2022-08-01T15:23:15.603Z,2.50
2022-08-01T15:28:17.311Z,3.25
2022-08-01T15:33:18.989Z,3.30
2022-08-01T15:38:20.641Z,2.67
2022-08-01T15:43:22.250Z,4.68
2022-08-01T15:48:24.092Z,2.30
2022-08-01T15:53:25.742Z,4.43
2022-08-01T15:58:27.381Z,3.35
2022-08-01T16:03:29.057Z,3.08
2022-08-01T16:08:30.725Z,1.85
2022-08-01T16:13:32.413Z,1.45
2022-08-01T16:18:34.108Z,1.83
2022-08-01T16:23:35.697Z,1.50
2022-08-01T16:28:37.838Z,1.00
2022-08-01T16:33:51.682Z,1.48
2022-08-01T16:38:56.205Z,0.90
2022-08-01T16:43:58.241Z,1.52
2022-08-01T16:49:00.058Z,2.50
2022-08-01T16:54:01.756Z,0.80
2022-08-01T16:59:03.496Z,3.10
2022-08-01T17:04:05.207Z,1.02
2022-08-01T17:09:06.885Z,1.00
2022-08-01T17:14:08.482Z,0.70
2022-08-01T17:19:10.238Z,1.67
2022-08-01T17:24:16.530Z,1.25
2022-08-01T17:29:18.386Z,0.88
2022-08-01T17:34:19.984Z,2.25
2022-08-01T17:39:23.766Z,2.80
2022-08-01T17:44:41.547Z,1.00
2022-08-01T17:49:54.899Z,1.92
2022-08-01T17:54:58.138Z,0.88
2022-08-01T17:59:59.795Z,1.27
2022-08-01T18:05:01.429Z,1.92
2022-08-01T18:10:11.624Z,2.03
2022-08-01T18:15:15.120Z,3.13
2022-08-01T18:20:16.969Z,2.13
2022-08-01T18:25:20.005Z,3.30
2022-08-01T18:30:21.680Z,1.75
2022-08-01T18:35:24.227Z,1.70
2022-08-01T18:40:46.102Z,3.47
2022-08-01T18:45:47.847Z,2.28
2022-08-01T18:50:49.475Z,2.40
2022-08-01T18:55:51.171Z,3.47
2022-08-01T19:00:52.884Z,3.20
2022-08-01T19:05:54.496Z,2.03
2022-08-01T19:10:56.115Z,3.75
2022-08-01T19:15:58.485Z,2.47
2022-08-01T19:21:01.027Z,2.20
2022-08-01T19:26:04.785Z,2.22
2022-08-01T19:31:08.447Z,2.55
2022-08-01T19:36:16.645Z,2.40
2022-08-01T19:41:19.227Z,2.28
2022-08-01T19:46:20.969Z,2.53
2022-08-01T19:51:33.076Z,2.65
2022-08-01T19:56:40.909Z,3.65
2022-08-01T20:01:43.889Z,2.97
2022-08-01T20:06:46.735Z,2.85
2022-08-01T20:11:51.489Z,4.18
2022-08-01T20:16:54.748Z,4.38
2022-08-01T20:22:04.634Z,3.08
2022-08-01T20:27:07.746Z,8.57
2022-08-01T20:32:09.797Z,3.15
2022-08-01T20:37:13.225Z,3.47
2022-08-01T20:42:16.134Z,4.75
2022-08-01T20:47:18.064Z,3.40
2022-08-01T20:52:21.026Z,3.75
2022-08-01T20:57:25.420Z,4.15
2022-08-01T21:02:35.891Z,3.55
2022-08-01T21:07:57.533Z,3.25
2022-08-01T21:13:07.571Z,4.28
2022-08-01T21:18:27.888Z,3.92
2022-08-01T21:23:59.324Z,4.57
2022-08-01T21:29:05.104Z,3.25
2022-08-01T21:34:08.183Z,3.42
2022-08-01T21:39:10.381Z,3.65
2022-08-01T21:44:14.711Z,3.90
2022-08-01T21:49:16.310Z,6.65
2022-08-01T21:54:28.580Z,3.92
2022-08-01T21:59:48.712Z,7.30
2022-08-01T22:05:00.368Z,5.68
2022-08-01T22:10:05.765Z,5.88
2022-08-01T22:15:08.412Z,4.07
2022-08-01T22:20:10.503Z,7.88
2022-08-01T22:25:12.378Z,6.43
2022-08-01T22:30:16.647Z,6.20
2022-08-01T22:35:18.288Z,4.20
2022-08-01T22:40:19.891Z,4.20
2022-08-01T22:45:40.364Z,4.93
2022-08-01T22:50:47.107Z,4.10
2022-08-01T22:55:58.585Z,4.00
2022-08-01T23:01:02.448Z,4.85
2022-08-01T23:06:45.128Z,6.72
2022-08-01T23:11:47.258Z,5.20
2022-08-01T23:16:51.136Z,6.57
2022-08-01T23:21:52.876Z,6.15
2022-08-01T23:26:55.423Z,4.90
2022-08-01T23:32:02.728Z,4.82
2022-08-01T23:37:05.237Z,4.70
2022-08-01T23:42:08.106Z,3.63
2022-08-01T23:47:10.078Z,4.40
2022-08-01T23:52:20.833Z,5.18
2022-08-01T23:57:23.380Z,4.10
